Time;durP1;ratioP1;P1;durP2;ratioP2;P2;SDS_P1;SDS_P2;PMS_P1;PMS_P2;Temp;Humidity;BMP_temperature;BMP_pressure;BME280_temperature;BME280_humidity;BME280_pressure;Samples;Min_cycle;Max_cycle;Signal;HPM_P1;HPM_P2
2022/04/13 00:01:16;;;;;;;9.93;4.43;;;;;;;8.73;47.38;100294.63;4472642;32;33065;-77
2022/04/13 00:03:44;;;;;;;9.35;4.47;;;;;;;8.72;47.29;100298.37;4472527;32;34745;-77
2022/04/13 00:06:11;;;;;;;9.55;4.65;;;;;;;8.79;47.09;100304.84;4459455;32;31740;-78
2022/04/13 00:08:40;;;;;;;9.30;4.50;;;;;;;8.75;47.28;100300.75;4459938;32;33669;-77
2022/04/13 00:11:07;;;;;;;13.35;4.65;;;;;;;8.81;47.18;100300.03;4446917;32;33783;-77
2022/04/13 00:13:35;;;;;;;7.87;4.82;;;;;;;8.70;47.71;100312.25;4472533;32;33956;-78
2022/04/13 00:16:03;;;;;;;9.13;4.53;;;;;;;8.76;47.48;100310.69;4472993;32;33443;-78
2022/04/13 00:18:31;;;;;;;8.43;4.22;;;;;;;8.63;47.53;100316.75;4472731;32;33611;-77
2022/04/13 00:20:58;;;;;;;9.52;4.78;;;;;;;8.61;47.73;100312.47;4472245;32;33823;-77
2022/04/13 00:23:28;;;;;;;13.55;5.80;;;;;;;8.55;48.02;100314.91;4459537;32;32458;-78
2022/04/13 00:25:59;;;;;;;11.43;6.15;;;;;;;8.49;48.49;100315.63;4459736;32;32525;-77
2022/04/13 00:28:27;;;;;;;9.95;5.10;;;;;;;8.38;48.67;100316.06;4486606;32;34084;-78
2022/04/13 00:30:56;;;;;;;9.93;4.72;;;;;;;8.47;48.18;100314.97;4459586;32;34193;-77
2022/04/13 00:33:24;;;;;;;11.32;5.37;;;;;;;8.31;48.62;100311.47;4459483;32;33849;-78
2022/04/13 00:35:54;;;;;;;9.75;5.00;;;;;;;8.57;48.08;100309.25;4458685;32;32331;-78
2022/04/13 00:38:24;;;;;;;7.82;4.28;;;;;;;8.48;48.30;100308.44;4459190;32;32186;-77
2022/04/13 00:40:55;;;;;;;9.80;4.78;;;;;;;8.40;48.51;100308.53;4472685;32;34363;-78
2022/04/13 00:43:24;;;;;;;9.07;4.90;;;;;;;8.62;48.08;100308.72;4446666;32;32425;-78
2022/04/13 00:45:52;;;;;;;8.10;4.87;;;;;;;8.58;48.23;100320.03;4472436;32;33376;-77
2022/04/13 00:48:40;;;;;;;9.52;4.90;;;;;;;8.38;48.60;100316.06;4486483;32;34403;-78
2022/04/13 00:51:08;;;;;;;11.55;4.85;;;;;;;8.38;48.72;100317.94;4459333;32;33017;-77
2022/04/13 00:53:35;;;;;;;10.27;4.60;;;;;;;8.40;48.87;100313.16;4472638;32;33889;-77
2022/04/13 00:56:04;;;;;;;9.77;4.50;;;;;;;8.40;48.86;100311.25;4472371;32;33353;-77
2022/04/13 00:58:32;;;;;;;7.78;4.20;;;;;;;8.34;49.10;100322.91;4472364;32;34495;-78
2022/04/13 01:01:03;;;;;;;8.52;4.60;;;;;;;8.30;48.97;100321.53;4459220;32;32938;-77
2022/04/13 01:03:35;;;;;;;8.25;4.70;;;;;;;8.31;48.82;100316.94;4486622;32;34509;-77
2022/04/13 01:06:08;;;;;;;8.23;4.60;;;;;;;8.34;48.91;100322.06;4456489;32;34148;-77
2022/04/13 01:08:39;;;;;;;7.97;4.18;;;;;;;8.19;49.07;100319.22;4456667;32;34678;-77
2022/04/13 01:11:07;;;;;;;10.20;4.68;;;;;;;8.13;49.50;100319.91;4469533;32;34295;-77
2022/04/13 01:13:38;;;;;;;10.55;4.60;;;;;;;8.16;49.40;100317.69;4444200;32;33339;-77
2022/04/13 01:16:09;;;;;;;10.32;4.47;;;;;;;8.09;49.58;100324.87;4470736;32;33703;-77
2022/04/13 01:18:36;;;;;;;8.10;4.37;;;;;;;8.11;49.80;100321.97;4456313;32;32029;-77
2022/04/13 01:21:06;;;;;;;9.20;4.87;;;;;;;8.00;50.24;100317.75;4470578;32;34089;-77
2022/04/13 01:23:34;;;;;;;8.45;4.68;;;;;;;8.07;49.93;100326.09;4469652;32;34836;-77
2022/04/13 01:26:02;;;;;;;8.63;4.97;;;;;;;8.16;49.73;100327.75;4469604;32;33375;-77
2022/04/13 01:28:36;;;;;;;11.07;5.43;;;;;;;8.15;49.68;100329.66;4456879;32;33970;-77
2022/04/13 01:31:07;;;;;;;11.15;5.00;;;;;;;8.10;49.88;100323.84;4469359;32;34348;-77
2022/04/13 01:33:37;;;;;;;9.32;4.82;;;;;;;7.90;50.32;100314.38;4469247;32;33101;-77
2022/04/13 01:36:09;;;;;;;9.07;4.93;;;;;;;8.07;49.91;100332.41;4456474;32;33121;-77
2022/04/13 01:38:37;;;;;;;9.07;4.18;;;;;;;7.96;50.12;100331.94;4469871;32;33622;-77
2022/04/13 01:41:07;;;;;;;10.88;4.53;;;;;;;8.07;49.72;100329.69;4470611;32;35111;-77
2022/04/13 01:43:35;;;;;;;10.93;5.32;;;;;;;8.16;49.50;100330.50;4469619;32;34635;-77
2022/04/13 01:46:05;;;;;;;8.15;4.57;;;;;;;8.07;49.86;100337.03;4469320;32;33358;-77
2022/04/13 01:48:35;;;;;;;8.25;4.80;;;;;;;8.17;49.61;100330.31;4469074;32;33613;-77
2022/04/13 01:51:05;;;;;;;9.50;4.57;;;;;;;8.03;49.85;100342.00;4469203;32;35065;-77
2022/04/13 01:53:35;;;;;;;9.20;4.90;;;;;;;7.94;49.92;100343.03;4469131;32;34649;-77
2022/04/13 01:56:03;;;;;;;9.00;4.15;;;;;;;7.99;49.81;100346.09;4456603;32;33980;-77
2022/04/13 01:58:32;;;;;;;11.25;4.90;;;;;;;7.91;49.94;100343.41;4456243;32;32161;-77
2022/04/13 02:01:00;;;;;;;7.68;4.10;;;;;;;7.98;49.77;100338.94;4468977;32;34481;-77
2022/04/13 02:03:31;;;;;;;7.07;4.30;;;;;;;7.92;49.95;100350.56;4469148;32;33902;-77
2022/04/13 02:05:58;;;;;;;10.07;3.90;;;;;;;7.83;50.26;100354.34;4456069;32;33229;-77
2022/04/13 02:08:26;;;;;;;8.88;4.37;;;;;;;7.84;50.13;100345.13;4469215;32;33831;-77
2022/04/13 02:10:56;;;;;;;8.00;4.35;;;;;;;7.78;50.13;100351.31;4469233;32;33333;-78
2022/04/13 02:13:24;;;;;;;7.35;4.07;;;;;;;7.71;50.15;100347.56;4468858;32;33746;-77
2022/04/13 02:15:55;;;;;;;6.53;3.58;;;;;;;7.80;50.06;100354.72;4456249;32;31794;-78
2022/04/13 02:18:22;;;;;;;9.25;4.28;;;;;;;7.93;49.63;100350.41;4470233;32;33779;-78
2022/04/13 02:20:50;;;;;;;8.85;4.22;;;;;;;7.76;49.83;100361.56;4469079;32;34698;-77
2022/04/13 02:23:18;;;;;;;7.50;4.20;;;;;;;7.76;49.77;100358.84;4456149;32;32420;-78
2022/04/13 02:25:45;;;;;;;11.63;4.10;;;;;;;7.78;49.76;100354.06;4455881;32;32771;-77
2022/04/13 02:28:13;;;;;;;9.68;4.72;;;;;;;7.71;50.17;100353.03;4469034;32;33689;-77
2022/04/13 02:30:43;;;;;;;10.55;4.78;;;;;;;7.82;50.02;100349.91;4443293;32;33929;-77
2022/04/13 02:33:13;;;;;;;10.45;4.68;;;;;;;7.69;50.29;100347.75;4469893;32;33827;-77
2022/04/13 02:35:43;;;;;;;8.27;4.05;;;;;;;7.72;50.26;100355.59;4456120;32;34127;-77
2022/04/13 02:38:10;;;;;;;8.75;4.53;;;;;;;7.60;50.66;100352.37;4455827;32;31799;-76
2022/04/13 02:40:43;;;;;;;7.97;4.10;;;;;;;7.67;50.55;100357.16;4468745;32;35301;-77
2022/04/13 02:43:11;;;;;;;9.05;4.03;;;;;;;7.50;50.73;100353.59;4470348;32;33798;-77
2022/04/13 02:45:41;;;;;;;7.90;4.40;;;;;;;7.42;50.96;100351.72;4468870;32;34029;-78
2022/04/13 02:48:09;;;;;;;7.95;4.72;;;;;;;7.50;50.71;100357.19;4469911;32;33873;-77
2022/04/13 02:50:39;;;;;;;8.15;3.92;;;;;;;7.31;51.32;100362.13;4455942;32;32854;-77
2022/04/13 02:53:06;;;;;;;9.50;4.75;;;;;;;7.55;50.60;100357.50;4456130;32;34051;-77
2022/04/13 02:55:37;;;;;;;7.97;4.20;;;;;;;7.53;50.63;100358.72;4455898;32;33549;-77
2022/04/13 02:58:05;;;;;;;7.70;3.90;;;;;;;7.42;50.98;100356.31;4468647;32;33685;-77
2022/04/13 03:00:32;;;;;;;9.70;4.25;;;;;;;7.42;50.90;100361.78;4454759;32;35218;-77
2022/04/13 03:03:03;;;;;;;9.38;4.65;;;;;;;7.49;50.64;100357.34;4468536;32;33932;-77
2022/04/13 03:05:32;;;;;;;9.73;5.05;;;;;;;7.24;51.42;100361.97;4468482;32;32723;-77
2022/04/13 03:08:04;;;;;;;8.63;4.87;;;;;;;7.53;50.71;100361.44;4455913;32;33276;-77
2022/04/13 03:10:32;;;;;;;9.68;4.25;;;;;;;7.24;51.31;100362.81;4455580;32;32902;-77
2022/04/13 03:12:59;;;;;;;12.23;5.07;;;;;;;7.40;50.89;100372.03;4468515;32;34064;-77
2022/04/13 03:15:28;;;;;;;9.60;4.75;;;;;;;7.31;51.17;100371.19;4455737;32;34359;-77
2022/04/13 03:17:56;;;;;;;9.93;4.90;;;;;;;7.36;51.24;100371.53;4468420;32;33796;-77
2022/04/13 03:20:24;;;;;;;9.63;4.90;;;;;;;7.27;51.39;100372.53;4468155;32;34496;-77
2022/04/13 03:22:51;;;;;;;9.85;5.00;;;;;;;7.33;51.32;100373.75;4469203;32;34847;-78
2022/04/13 03:25:21;;;;;;;10.70;5.05;;;;;;;7.32;51.46;100366.56;4468304;32;31821;-77
2022/04/13 03:27:52;;;;;;;11.25;4.80;;;;;;;7.38;51.33;100376.81;4468265;32;33729;-77
2022/04/13 03:30:22;;;;;;;13.02;5.78;;;;;;;7.14;51.76;100374.97;4455304;32;34087;-77
2022/04/13 03:32:53;;;;;;;12.73;5.57;;;;;;;7.23;51.46;100376.63;4468244;32;33750;-77
2022/04/13 03:35:24;;;;;;;10.15;5.25;;;;;;;7.30;51.36;100374.94;4468040;32;33918;-77
2022/04/13 03:37:51;;;;;;;11.12;5.62;;;;;;;7.32;51.31;100380.22;4468391;32;34413;-77
2022/04/13 03:40:19;;;;;;;10.00;5.40;;;;;;;7.07;51.88;100391.16;4455170;32;33014;-77
2022/04/13 03:42:52;;;;;;;12.02;5.47;;;;;;;7.07;51.93;100398.50;4469108;32;33837;-77
2022/04/13 03:45:20;;;;;;;12.02;5.03;;;;;;;7.04;52.06;100396.09;4469184;32;33434;-77
2022/04/13 03:47:48;;;;;;;14.15;5.40;;;;;;;7.22;51.41;100397.63;4468021;32;33773;-78
2022/04/13 03:50:17;;;;;;;10.25;5.37;;;;;;;7.28;51.21;100387.91;4442308;32;32978;-77
2022/04/13 03:52:46;;;;;;;10.13;5.60;;;;;;;7.16;51.41;100386.53;4468121;32;34539;-76
2022/04/13 03:55:14;;;;;;;11.27;5.62;;;;;;;7.18;51.58;100392.69;4467897;32;33064;-76
2022/04/13 03:57:41;;;;;;;11.43;5.30;;;;;;;7.28;51.34;100407.00;4467891;32;33610;-77
2022/04/13 04:00:09;;;;;;;12.13;5.15;;;;;;;7.16;51.69;100411.09;4467818;32;35244;-77
2022/04/13 04:02:41;;;;;;;10.52;5.75;;;;;;;7.19;51.41;100405.31;4454861;32;32423;-77
2022/04/13 04:05:11;;;;;;;11.32;5.70;;;;;;;6.98;51.94;100405.81;4469868;32;34273;-77
2022/04/13 04:07:39;;;;;;;11.07;5.50;;;;;;;7.12;51.50;100402.44;4470382;32;33637;-79
2022/04/13 04:10:11;;;;;;;12.57;5.32;;;;;;;7.05;51.42;100408.72;4457650;32;35058;-75
2022/04/13 04:12:40;;;;;;;12.40;5.25;;;;;;;7.13;53.80;100406.87;4473001;32;34842;-75
2022/04/13 04:15:09;;;;;;;10.30;5.55;;;;;;;7.12;52.07;100407.88;4459793;32;33970;-75
2022/04/13 04:17:39;;;;;;;10.88;5.07;;;;;;;7.08;51.54;100409.25;4472417;32;33722;-75
2022/04/13 04:20:13;;;;;;;10.75;5.15;;;;;;;7.13;51.21;100414.19;4459614;32;32981;-75
2022/04/13 04:22:42;;;;;;;9.55;4.93;;;;;;;7.03;51.25;100413.50;4472288;32;34010;-76
2022/04/13 04:25:13;;;;;;;9.32;5.05;;;;;;;7.04;51.17;100418.78;4486688;32;33215;-75
2022/04/13 04:27:43;;;;;;;11.25;5.65;;;;;;;7.14;59.24;100421.38;4487442;32;33778;-72
2022/04/13 04:30:11;;;;;;;9.20;5.12;;;;;;;7.45;61.72;100408.72;4470757;32;34967;-74
2022/04/13 04:32:38;;;;;;;9.10;5.45;;;;;;;7.64;58.47;100420.31;4485093;32;33595;-74
2022/04/13 04:35:07;;;;;;;11.27;6.03;;;;;;;7.48;53.73;100424.78;4471363;32;33238;-73
2022/04/13 04:37:37;;;;;;;14.75;5.28;;;;;;;7.63;52.95;100424.94;4459389;32;32273;-73
2022/04/13 04:40:06;;;;;;;11.75;5.55;;;;;;;7.40;52.25;100423.91;4486590;32;34398;-74
2022/04/13 04:42:45;;;;;;;10.23;5.95;;;;;;;7.37;52.28;100430.56;4472053;32;34656;-75
2022/04/13 04:45:17;;;;;;;11.32;5.55;;;;;;;7.42;52.23;100430.06;4472468;32;34127;-74
2022/04/13 04:47:49;;;;;;;18.33;9.80;;;;;;;7.46;52.23;100428.69;4459934;32;32161;-72
2022/04/13 04:50:21;;;;;;;12.88;5.57;;;;;;;7.68;55.23;100430.75;4472403;32;34285;-74
2022/04/13 04:52:52;;;;;;;14.18;6.82;;;;;;;7.92;58.78;100430.69;4472364;32;33993;-74
2022/04/13 04:55:22;;;;;;;10.75;5.95;;;;;;;7.73;52.38;100433.81;4472096;32;33366;-74
2022/04/13 04:57:50;;;;;;;11.20;6.53;;;;;;;7.88;51.65;100431.19;4485541;31;33660;-74
2022/04/13 05:00:20;;;;;;;13.35;6.62;;;;;;;7.80;51.76;100436.69;4483651;32;34242;-74
2022/04/13 05:02:52;;;;;;;12.57;7.05;;;;;;;7.90;51.36;100438.19;4459764;32;34933;-74
2022/04/13 05:05:21;;;;;;;18.12;7.25;;;;;;;7.98;51.19;100436.47;4472420;32;34140;-74
2022/04/13 05:07:49;;;;;;;14.95;7.62;;;;;;;8.06;51.14;100442.78;4484365;32;34284;-75
2022/04/13 05:10:16;;;;;;;12.70;6.93;;;;;;;8.21;50.98;100437.44;4472214;32;34330;-74
2022/04/13 05:12:57;;;;;;;16.67;7.82;;;;;;;8.15;51.35;100441.75;4472100;32;32454;-74
2022/04/13 05:15:26;;;;;;;17.35;7.72;;;;;;;8.38;50.74;100443.75;4485074;32;33363;-74
2022/04/13 05:17:53;;;;;;;14.93;7.32;;;;;;;8.48;50.92;100444.37;4472162;32;34525;-75
2022/04/13 05:20:23;;;;;;;15.35;7.35;;;;;;;8.68;50.57;100440.19;4458382;31;33103;-74
2022/04/13 05:22:51;;;;;;;14.90;8.18;;;;;;;8.47;50.81;100449.00;4470516;32;32773;-74
2022/04/13 05:25:19;;;;;;;11.65;7.03;;;;;;;8.75;50.32;100446.66;4485522;32;33400;-74
2022/04/13 05:27:50;;;;;;;16.62;8.02;;;;;;;8.68;51.00;100442.06;4459237;32;33504;-74
2022/04/13 05:30:19;;;;;;;15.93;8.32;;;;;;;8.66;51.26;100453.19;4485295;32;34019;-74
2022/04/13 05:32:49;;;;;;;14.27;8.48;;;;;;;8.98;50.75;100456.81;4471329;32;34203;-74
2022/04/13 05:35:17;;;;;;;14.15;8.27;;;;;;;9.04;50.54;100464.31;4471656;32;32130;-74
2022/04/13 05:37:51;;;;;;;14.60;6.72;;;;;;;9.21;50.17;100460.41;4472224;32;33885;-75
2022/04/13 05:40:25;;;;;;;12.55;6.20;;;;;;;9.44;47.72;100466.75;4471953;32;34376;-74
2022/04/13 05:42:55;;;;;;;13.85;7.65;;;;;;;9.90;46.43;100469.44;4458960;32;32568;-75
2022/04/13 05:45:24;;;;;;;15.10;6.62;;;;;;;10.08;45.38;100477.31;4459418;32;34175;-75
2022/04/13 05:47:55;;;;;;;14.18;7.53;;;;;;;10.33;43.41;100466.97;4458779;32;32251;-74
2022/04/13 05:50:25;;;;;;;13.50;7.35;;;;;;;10.55;43.20;100472.34;4458634;32;33851;-75
2022/04/13 05:52:53;;;;;;;13.98;6.47;;;;;;;10.85;42.32;100464.94;4485846;32;34429;-75
2022/04/13 05:55:20;;;;;;;12.68;6.75;;;;;;;11.08;41.52;100466.69;4470510;32;33345;-75
2022/04/13 05:57:51;;;;;;;14.40;7.03;;;;;;;11.28;40.36;100467.75;4485754;32;33700;-74
2022/04/13 06:00:20;;;;;;;11.12;6.78;;;;;;;11.63;39.68;100473.41;4486187;32;34636;-75
2022/04/13 06:02:50;;;;;;;13.93;7.28;;;;;;;11.63;39.58;100470.66;4459055;32;32511;-74
2022/04/13 06:05:18;;;;;;;16.05;8.20;;;;;;;11.72;39.49;100473.06;4455937;32;32210;-74
2022/04/13 06:07:47;;;;;;;12.45;8.20;;;;;;;11.85;39.69;100472.34;4470092;32;34002;-75
2022/04/13 06:10:17;;;;;;;41.50;24.12;;;;;;;12.15;39.30;100467.53;4456283;32;33905;-75
2022/04/13 06:12:48;;;;;;;27.05;15.50;;;;;;;12.28;38.60;100475.03;4469892;32;34724;-74
2022/04/13 06:15:19;;;;;;;14.20;7.93;;;;;;;12.19;38.79;100480.69;4468691;32;34175;-74
2022/04/13 06:17:49;;;;;;;11.05;6.62;;;;;;;11.93;38.13;100482.38;4470226;32;33916;-74
2022/04/13 06:20:22;;;;;;;12.77;7.25;;;;;;;12.53;38.14;100484.50;4456466;32;35182;-74
2022/04/13 06:22:54;;;;;;;16.58;7.95;;;;;;;12.25;37.62;100490.06;4468883;32;34795;-74
2022/04/13 06:25:33;;;;;;;14.48;6.95;;;;;;;12.93;37.72;100493.84;4456700;32;32111;-74
2022/04/13 06:28:04;;;;;;;14.50;7.45;;;;;;;13.08;36.23;100496.44;4456512;32;36231;-74
2022/04/13 06:30:34;;;;;;;14.27;7.10;;;;;;;13.41;36.63;100486.41;4468826;32;33965;-74
2022/04/13 06:33:01;;;;;;;12.98;7.82;;;;;;;13.54;35.84;100495.78;4469959;32;33826;-74
2022/04/13 06:35:35;;;;;;;14.98;8.07;;;;;;;14.03;35.19;100492.62;4468707;32;33374;-75
2022/04/13 06:38:03;;;;;;;16.87;10.35;;;;;;;13.70;35.22;100492.59;4469848;32;33654;-75
2022/04/13 06:40:30;;;;;;;16.20;8.77;;;;;;;13.94;35.39;100496.66;4470059;32;35037;-75
2022/04/13 06:43:01;;;;;;;18.17;12.00;;;;;;;14.27;35.14;100491.16;4455963;32;34620;-74
2022/04/13 06:45:29;;;;;;;18.90;12.07;;;;;;;14.63;34.67;100505.34;4469000;32;33214;-75
2022/04/13 06:47:59;;;;;;;13.48;8.00;;;;;;;14.81;34.56;100504.69;4468695;32;33901;-74
2022/04/13 06:50:33;;;;;;;17.77;8.20;;;;;;;15.18;33.43;100497.50;4468681;32;34368;-75
2022/04/13 06:53:01;;;;;;;15.05;9.65;;;;;;;15.57;33.01;100502.03;4468464;32;33859;-75
2022/04/13 06:55:34;;;;;;;13.85;7.97;;;;;;;15.88;32.17;100495.63;4455803;32;31660;-76
2022/04/13 06:58:02;;;;;;;17.27;8.80;;;;;;;15.66;31.49;100494.28;4469960;32;34696;-75
2022/04/13 07:00:30;;;;;;;12.05;7.57;;;;;;;16.25;31.60;100493.00;4468757;32;32803;-75
2022/04/13 07:03:00;;;;;;;12.93;9.02;;;;;;;16.19;30.70;100491.16;4469921;32;34623;-75
2022/04/13 07:05:43;;;;;;;16.23;7.10;;;;;;;16.49;31.17;100497.66;4468612;32;32866;-74
2022/04/13 07:08:11;;;;;;;13.35;7.10;;;;;;;16.58;30.12;100492.69;4456020;32;34448;-75
2022/04/13 07:10:38;;;;;;;11.27;7.10;;;;;;;16.89;29.58;100483.44;4456127;32;34547;-75
2022/04/13 07:13:16;;;;;;;15.25;7.78;;;;;;;16.91;29.34;100495.94;4468690;32;34063;-75
2022/04/13 07:15:52;;;;;;;15.68;7.28;;;;;;;17.17;28.99;100489.25;4468664;32;33200;-75
2022/04/13 07:18:23;;;;;;;12.80;5.68;;;;;;;16.91;28.73;100495.09;4468208;32;34548;-75
2022/04/13 07:20:53;;;;;;;9.63;5.50;;;;;;;17.12;27.60;100497.41;4455426;32;35306;-75
2022/04/13 07:23:21;;;;;;;11.75;6.72;;;;;;;17.50;27.04;100496.28;4456030;32;32511;-74
2022/04/13 07:25:53;;;;;;;12.40;7.00;;;;;;;17.58;27.79;100498.72;4467766;32;33953;-74
2022/04/13 07:28:21;;;;;;;13.50;6.50;;;;;;;17.59;27.31;100495.69;4454825;32;32265;-75
2022/04/13 07:30:51;;;;;;;10.70;6.10;;;;;;;17.67;27.63;100500.12;4454856;32;34308;-74
2022/04/13 07:33:25;;;;;;;19.98;12.13;;;;;;;17.68;26.50;100497.09;4455074;32;33998;-75
2022/04/13 07:35:58;;;;;;;15.27;6.60;;;;;;;17.78;26.22;100489.06;4455561;32;32947;-74
2022/04/13 07:38:25;;;;;;;11.70;6.85;;;;;;;17.89;26.87;100498.50;4468178;32;33576;-74
2022/04/13 07:40:53;;;;;;;11.55;6.32;;;;;;;18.18;28.00;100505.09;4468066;32;35413;-74
2022/04/13 07:43:23;;;;;;;9.57;5.45;;;;;;;18.15;28.86;100505.56;4469222;32;33768;-74
2022/04/13 07:45:53;;;;;;;12.35;6.87;;;;;;;18.04;26.32;100504.47;4468836;32;33096;-74
2022/04/13 07:48:21;;;;;;;18.00;11.77;;;;;;;18.31;27.89;100507.63;4458239;32;33850;-75
2022/04/13 07:50:51;;;;;;;11.18;6.00;;;;;;;18.54;27.26;100504.03;4479038;32;34572;-74
2022/04/13 07:53:19;;;;;;;10.35;5.78;;;;;;;18.68;26.30;100502.72;4486345;32;34053;-74
2022/04/13 07:55:51;;;;;;;11.60;5.68;;;;;;;18.97;25.67;100506.44;4485110;32;33329;-74
2022/04/13 07:58:19;;;;;;;12.23;6.60;;;;;;;19.15;26.57;100511.00;4478829;32;33529;-74
2022/04/13 08:00:49;;;;;;;20.12;6.37;;;;;;;19.13;25.08;100504.00;4484083;32;34320;-74
2022/04/13 08:03:25;;;;;;;9.98;6.03;;;;;;;19.38;23.64;100501.75;4475141;32;34152;-74
2022/04/13 08:06:07;;;;;;;14.45;5.82;;;;;;;18.95;24.61;100511.37;4466156;32;33549;-74
2022/04/13 08:08:35;;;;;;;8.65;5.57;;;;;;;19.11;28.48;100512.56;4486920;32;33675;-74
2022/04/13 08:11:03;;;;;;;8.95;5.15;;;;;;;19.48;25.38;100513.09;4472609;32;33860;-74
2022/04/13 08:13:30;;;;;;;8.52;4.45;;;;;;;19.54;23.95;100509.31;4459672;32;32515;-74
2022/04/13 08:16:18;;;;;;;12.80;5.80;;;;;;;19.41;26.33;100516.03;4474784;32;32091;-74
2022/04/13 08:18:47;;;;;;;9.02;5.57;;;;;;;19.84;23.55;100509.06;4486466;31;33666;-74
2022/04/13 08:21:14;;;;;;;8.98;4.18;;;;;;;20.04;24.05;100511.41;4484996;31;34428;-74
2022/04/13 08:23:47;;;;;;;9.52;4.72;;;;;;;20.33;23.87;100513.00;4488022;31;34299;-74
2022/04/13 08:26:17;;;;;;;11.18;4.62;;;;;;;19.91;22.88;100518.13;4502610;31;33108;-74
2022/04/13 08:28:45;;;;;;;7.30;3.90;;;;;;;20.21;23.54;100520.59;4475376;31;33789;-74
2022/04/13 08:31:12;;;;;;;10.20;5.18;;;;;;;19.92;24.15;100518.97;4488197;31;34465;-74
2022/04/13 08:33:43;;;;;;;9.27;5.10;;;;;;;20.02;24.16;100508.03;4502456;31;34712;-75
2022/04/13 08:36:14;;;;;;;10.75;4.00;;;;;;;19.95;22.56;100507.31;4475125;31;31662;-74
2022/04/13 08:38:42;;;;;;;9.27;4.82;;;;;;;20.14;23.86;100516.31;4475194;31;33376;-76
2022/04/13 08:41:19;;;;;;;9.10;4.50;;;;;;;19.97;21.39;100514.34;4488239;31;35178;-75
2022/04/13 08:43:51;;;;;;;7.50;3.87;;;;;;;20.42;22.11;100515.41;4485083;31;33865;-74
2022/04/13 08:46:24;;;;;;;8.43;4.47;;;;;;;20.59;22.03;100505.09;4472884;31;31828;-76
2022/04/13 08:48:56;;;;;;;7.95;4.55;;;;;;;20.90;21.41;100503.59;4465948;32;34483;-75
2022/04/13 08:51:44;;;;;;;10.80;7.07;;;;;;;20.64;21.16;100517.19;4469060;31;34227;-75
2022/04/13 08:54:20;;;;;;;11.25;5.57;;;;;;;20.43;23.47;100514.31;4482068;32;34106;-75
2022/04/13 08:56:49;;;;;;;12.88;6.87;;;;;;;20.44;21.74;100516.84;4472181;32;31955;-75
2022/04/13 09:00:13;;;;;;;8.60;4.93;;;;;;;20.23;22.35;100506.41;4474536;32;32349;-75
2022/04/13 09:02:50;;;;;;;8.48;4.70;;;;;;;20.51;21.83;100509.16;4469017;32;106604;-75
2022/04/13 09:05:23;;;;;;;8.65;5.30;;;;;;;20.54;22.04;100500.28;4486295;32;34045;-75
2022/04/13 09:08:06;;;;;;;9.75;4.72;;;;;;;20.87;22.11;100499.38;4485213;32;34269;-75
2022/04/13 09:10:33;;;;;;;7.35;4.57;;;;;;;20.80;21.19;100500.69;4490217;31;33814;-75
2022/04/13 09:13:02;;;;;;;8.10;4.72;;;;;;;21.14;20.82;100505.03;4476967;32;34556;-75
2022/04/13 09:15:31;;;;;;;7.90;4.03;;;;;;;20.73;20.87;100511.16;4445727;32;32941;-75
2022/04/13 09:18:00;;;;;;;7.30;4.32;;;;;;;20.62;20.72;100511.00;4471509;32;32343;-75
2022/04/13 09:20:30;;;;;;;13.52;9.75;;;;;;;20.92;20.03;100506.97;4456826;32;32963;-75
2022/04/13 09:23:01;;;;;;;9.38;5.00;;;;;;;21.24;19.65;100499.62;4469668;32;34088;-75
2022/04/13 09:25:30;;;;;;;9.55;5.15;;;;;;;21.57;21.10;100503.38;4484114;32;33889;-75
2022/04/13 09:28:01;;;;;;;10.50;5.30;;;;;;;21.80;20.69;100499.44;4470994;32;32875;-75
2022/04/13 09:30:32;;;;;;;10.82;5.50;;;;;;;22.01;20.15;100498.53;4470910;32;33654;-75
2022/04/13 09:33:03;;;;;;;13.65;5.68;;;;;;;22.11;20.12;100492.19;4458098;32;32816;-75
2022/04/13 09:35:32;;;;;;;13.50;5.65;;;;;;;21.91;19.47;100487.25;4459231;32;33969;-75
2022/04/13 09:38:04;;;;;;;8.68;4.68;;;;;;;22.07;20.24;100486.34;4471985;32;31977;-75
2022/04/13 09:40:32;;;;;;;8.65;5.28;;;;;;;22.50;18.75;100488.06;4472157;32;33808;-75
2022/04/13 09:43:13;;;;;;;9.77;5.68;;;;;;;22.75;18.70;100486.56;4472184;32;34353;-75
2022/04/13 09:45:45;;;;;;;12.02;6.60;;;;;;;23.01;19.84;100485.63;4486477;32;34364;-75
2022/04/13 09:48:21;;;;;;;21.37;14.85;;;;;;;22.63;19.14;100479.22;4459482;32;33437;-75
2022/04/13 09:50:50;;;;;;;8.60;5.45;;;;;;;22.43;19.44;100486.62;4472129;32;33771;-75
2022/04/13 09:53:20;;;;;;;10.27;5.93;;;;;;;23.02;19.12;100475.25;4459142;32;35332;-75
2022/04/13 09:55:54;;;;;;;8.20;4.90;;;;;;;22.35;19.85;100473.97;4471719;32;33390;-75
2022/04/13 09:58:25;;;;;;;10.13;5.43;;;;;;;22.78;19.64;100472.00;4471877;32;33692;-75
2022/04/13 10:01:00;;;;;;;8.25;4.95;;;;;;;22.74;19.48;100476.50;4472511;32;33698;-75
2022/04/13 10:03:28;;;;;;;;;;;;;;;22.98;18.99;100470.22;4472103;32;32888;-75
2022/04/13 10:05:57;;;;;;;7.30;4.72;;;;;;;23.11;19.39;100468.88;4471664;32;34951;-75
2022/04/13 10:08:27;;;;;;;7.00;4.60;;;;;;;23.07;19.04;100469.69;4458787;32;32350;-76
2022/04/13 10:10:58;;;;;;;9.38;5.37;;;;;;;23.34;19.53;100473.19;4458979;32;32057;-76
2022/04/13 10:13:34;;;;;;;8.90;5.03;;;;;;;23.47;19.38;100469.00;4471728;32;35011;-75
2022/04/13 10:16:03;;;;;;;;;;;;;;;23.65;19.18;100465.72;4459253;32;32420;-76
2022/04/13 10:19:00;;;;;;;9.23;5.35;;;;;;;23.79;18.37;100475.28;4459129;32;33490;-75
2022/04/13 10:21:49;;;;;;;11.90;5.30;;;;;;;24.26;18.51;100463.84;4471924;32;33830;-75
2022/04/13 10:24:32;;;;;;;16.62;9.90;;;;;;;24.28;17.62;100460.78;4471605;32;34601;-75
2022/04/13 10:27:03;;;;;;;13.07;6.75;;;;;;;24.11;17.99;100463.81;4471507;32;32267;-75
2022/04/13 10:29:33;;;;;;;12.02;6.70;;;;;;;24.12;18.03;100456.25;4458823;32;32780;-76
2022/04/13 10:32:03;;;;;;;9.23;5.25;;;;;;;24.14;17.67;100456.81;4485782;32;33777;-76
2022/04/13 10:34:31;;;;;;;10.25;5.82;;;;;;;24.43;17.92;100443.94;4471872;32;34457;-75
2022/04/13 10:36:59;;;;;;;11.23;5.93;;;;;;;24.19;17.22;100446.44;4445856;32;33017;-75
2022/04/13 10:39:28;;;;;;;11.12;5.50;;;;;;;24.45;17.64;100447.28;4471743;32;33278;-75
2022/04/13 10:41:56;;;;;;;11.48;5.18;;;;;;;24.71;18.08;100436.84;4471648;32;32291;-75
2022/04/13 10:44:38;;;;;;;8.80;5.45;;;;;;;24.80;18.22;100442.72;4471398;32;33090;-76
2022/04/13 10:47:08;;;;;;;9.98;5.60;;;;;;;24.88;17.31;100433.72;4471793;32;33619;-76
2022/04/13 10:49:39;;;;;;;11.45;6.18;;;;;;;24.66;18.08;100436.03;4457504;32;34057;-75
2022/04/13 10:52:10;;;;;;;9.00;5.55;;;;;;;24.94;17.72;100427.78;4485543;32;34048;-75
2022/04/13 10:54:38;;;;;;;10.70;5.97;;;;;;;25.07;17.77;100412.34;4471633;32;35218;-76
2022/04/13 10:57:09;;;;;;;11.82;5.75;;;;;;;25.03;17.46;100416.84;4458728;32;33875;-76
2022/04/13 10:59:52;;;;;;;11.55;6.37;;;;;;;25.05;17.40;100414.59;4482450;32;33549;-73
2022/04/13 11:02:43;;;;;;;11.23;6.47;;;;;;;25.20;18.80;100422.12;4484585;32;33745;-73
2022/04/13 11:05:12;;;;;;;11.95;8.10;;;;;;;24.85;17.46;100417.44;4485671;32;34411;-74
2022/04/13 11:07:40;;;;;;;13.80;6.62;;;;;;;25.03;17.46;100416.84;4471188;32;34758;-73
2022/04/13 11:10:16;;;;;;;12.10;6.00;;;;;;;25.16;17.94;100415.38;4484272;32;33370;-73
2022/04/13 11:12:44;;;;;;;10.77;5.93;;;;;;;25.48;18.76;100404.50;4484461;32;34504;-73
2022/04/13 11:15:38;;;;;;;12.98;6.90;;;;;;;25.59;19.51;100405.28;4483727;32;35170;-73
2022/04/13 11:18:16;;;;;;;10.68;5.85;;;;;;;25.55;19.88;100407.84;4484015;32;33487;-73
2022/04/13 11:20:58;;;;;;;11.95;6.28;;;;;;;25.64;17.17;100394.06;4483543;32;33179;-73
2022/04/13 11:23:49;;;;;;;12.90;6.43;;;;;;;25.18;16.26;100399.09;4485252;32;33637;-75
2022/04/13 11:26:35;;;;;;;11.70;6.70;;;;;;;24.72;17.06;100401.19;4483975;32;34477;-74
2022/04/13 11:29:09;;;;;;;;;;;;;;;24.92;17.53;100393.53;4484072;32;32978;-75
2022/04/13 11:31:59;;;;;;;10.73;6.57;;;;;;;24.72;17.23;100398.38;4484766;32;33174;-74
2022/04/13 11:34:48;;;;;;;11.98;7.07;;;;;;;25.11;17.57;100384.50;4483590;32;33707;-75
2022/04/13 11:37:21;;;;;;;15.82;6.65;;;;;;;25.70;17.11;100383.59;4484055;32;34365;-73
2022/04/13 11:39:59;;;;;;;12.20;6.80;;;;;;;25.14;17.81;100381.12;4485256;32;34030;-73
2022/04/13 11:42:27;;;;;;;11.10;6.68;;;;;;;24.94;16.91;100382.03;4483924;32;32088;-73